DLH992 EDDH-EHAM
Flight info
| Callsign | DLH992 |
|---|---|
| Flight time | N/A |
| Altitude | 30000 |
| Route | WSN5G WSN N125 ITMIZ DCT BLUFA BLUFA1A |
| Aircraft | A320/M-SDE3FGHIRWY/LB1 |
Departure
| Time | 2026-04-23 13:43 |
|---|---|
| Airport | Hamburg Helmut Schmidt Airport (EDDH) |
Arrival
| Time | N/A |
|---|---|
| Airport | Amsterdam Airport Schiphol (EHAM) |
| Time | Latitude | Longitude | Altitude | Speed | Heading |
|---|---|---|---|---|---|
| 2026-04-23 13:00 | 53.63294 | 10.00359 | 51 ft | 0 kts | 86° |
| 2026-04-23 13:34 | 53.63293 | 10.00330 | 51 ft | 4 kts | 88° |
| 2026-04-23 13:34 | 53.63292 | 10.00285 | 51 ft | 4 kts | 88° |
| 2026-04-23 13:34 | 53.63291 | 10.00247 | 51 ft | 4 kts | 97° |
| 2026-04-23 13:35 | 53.63301 | 10.00212 | 47 ft | 4 kts | 152° |
| 2026-04-23 13:35 | 53.63326 | 10.00201 | 51 ft | 4 kts | 175° |
| 2026-04-23 13:35 | 53.63336 | 10.00199 | 48 ft | 0 kts | 175° |
| 2026-04-23 13:38 | 53.63334 | 10.00200 | 51 ft | 3 kts | 175° |
| 2026-04-23 13:38 | 53.63270 | 10.00209 | 47 ft | 10 kts | 175° |
| 2026-04-23 13:39 | 53.63201 | 10.00219 | 49 ft | 10 kts | 176° |
| 2026-04-23 13:39 | 53.63096 | 10.00228 | 51 ft | 18 kts | 181° |
| 2026-04-23 13:39 | 53.62988 | 10.00135 | 51 ft | 19 kts | 213° |
| 2026-04-23 13:39 | 53.62944 | 10.00086 | 50 ft | 3 kts | 213° |
| 2026-04-23 13:40 | 53.62884 | 10.00042 | 49 ft | 17 kts | 199° |
| 2026-04-23 13:40 | 53.62820 | 9.99883 | 50 ft | 17 kts | 243° |
| 2026-04-23 13:40 | 53.62821 | 9.99792 | 49 ft | 1 kts | 316° |
| 2026-04-23 13:40 | 53.62833 | 9.99772 | 49 ft | 4 kts | 316° |
| 2026-04-23 13:41 | 53.62864 | 9.99741 | 49 ft | 6 kts | 332° |
| 2026-04-23 13:41 | 53.62905 | 9.99708 | 50 ft | 8 kts | 334° |
| 2026-04-23 13:41 | 53.62910 | 9.99704 | 50 ft | 0 kts | 333° |
| 2026-04-23 13:42 | 53.62911 | 9.99703 | 47 ft | 2 kts | 333° |
| 2026-04-23 13:42 | 53.63077 | 9.99559 | 49 ft | 66 kts | 332° |
| 2026-04-23 13:42 | 53.63699 | 9.99025 | 49 ft | 132 kts | 333° |
| 2026-04-23 13:42 | 53.64617 | 9.98274 | 503 ft | 148 kts | 331° |
| 2026-04-23 13:43 | 53.65562 | 9.97493 | 1142 ft | 161 kts | 329° |
| 2026-04-23 13:43 | 53.66628 | 9.96566 | 1693 ft | 184 kts | 330° |
| 2026-04-23 13:43 | 53.67818 | 9.95530 | 2449 ft | 196 kts | 331° |
| 2026-04-23 13:43 | 53.69045 | 9.94466 | 3429 ft | 199 kts | 333° |
| 2026-04-23 13:44 | 53.70287 | 9.93374 | 4353 ft | 204 kts | 329° |
| 2026-04-23 13:44 | 53.71259 | 9.91614 | 5278 ft | 213 kts | 297° |
| 2026-04-23 13:44 | 53.71464 | 9.89013 | 5854 ft | 245 kts | 264° |
| 2026-04-23 13:44 | 53.71008 | 9.86070 | 6454 ft | 269 kts | 257° |
| 2026-04-23 13:45 | 53.70611 | 9.84060 | 7031 ft | 275 kts | 255° |
| 2026-04-23 13:45 | 53.69732 | 9.79940 | 8300 ft | 283 kts | 255° |
| 2026-04-23 13:45 | 53.69057 | 9.76794 | 9293 ft | 287 kts | 255° |
| 2026-04-23 13:45 | 53.68387 | 9.73596 | 10281 ft | 291 kts | 255° |
| 2026-04-23 13:46 | 53.67708 | 9.70253 | 10781 ft | 313 kts | 256° |
| 2026-04-23 13:46 | 53.67008 | 9.66744 | 11403 ft | 325 kts | 255° |
| 2026-04-23 13:46 | 53.66283 | 9.63096 | 12241 ft | 331 kts | 255° |
| 2026-04-23 13:46 | 53.65521 | 9.59400 | 13115 ft | 337 kts | 251° |
| 2026-04-23 13:47 | 53.64393 | 9.55880 | 13957 ft | 346 kts | 239° |
| 2026-04-23 13:47 | 53.62973 | 9.52563 | 14740 ft | 351 kts | 237° |
| 2026-04-23 13:47 | 53.61531 | 9.49219 | 15477 ft | 355 kts | 237° |
| 2026-04-23 13:47 | 53.60070 | 9.45830 | 16226 ft | 359 kts | 237° |
| 2026-04-23 13:48 | 53.58592 | 9.42397 | 16948 ft | 364 kts | 236° |
| 2026-04-23 13:48 | 53.57094 | 9.38918 | 17646 ft | 370 kts | 236° |
| 2026-04-23 13:48 | 53.55577 | 9.35400 | 18356 ft | 374 kts | 236° |
| 2026-04-23 13:48 | 53.54037 | 9.31835 | 19030 ft | 378 kts | 235° |
| 2026-04-23 13:49 | 53.52482 | 9.28243 | 19639 ft | 382 kts | 235° |
| 2026-04-23 13:49 | 53.50907 | 9.24605 | 20211 ft | 388 kts | 235° |
| 2026-04-23 13:49 | 53.49316 | 9.20920 | 20871 ft | 390 kts | 235° |
| 2026-04-23 13:49 | 53.47720 | 9.17221 | 21530 ft | 393 kts | 235° |
| 2026-04-23 13:50 | 53.46104 | 9.13493 | 22121 ft | 397 kts | 235° |
| 2026-04-23 13:50 | 53.44466 | 9.09726 | 22704 ft | 401 kts | 234° |
| 2026-04-23 13:50 | 53.42813 | 9.05942 | 23346 ft | 403 kts | 234° |
| 2026-04-23 13:50 | 53.41169 | 9.02187 | 23908 ft | 407 kts | 234° |
| 2026-04-23 13:51 | 53.39482 | 8.98337 | 24373 ft | 412 kts | 234° |
| 2026-04-23 13:51 | 53.37784 | 8.94462 | 24845 ft | 415 kts | 234° |
| 2026-04-23 13:51 | 53.36076 | 8.90552 | 25332 ft | 418 kts | 235° |
| 2026-04-23 13:51 | 53.34576 | 8.86366 | 25746 ft | 422 kts | 244° |
| 2026-04-23 13:52 | 53.33459 | 8.81805 | 26207 ft | 425 kts | 250° |
| 2026-04-23 13:52 | 53.32444 | 8.77168 | 26710 ft | 426 kts | 250° |
| 2026-04-23 13:52 | 53.31413 | 8.72489 | 27157 ft | 430 kts | 249° |
| 2026-04-23 13:52 | 53.30369 | 8.67786 | 27591 ft | 433 kts | 249° |
| 2026-04-23 13:53 | 53.29319 | 8.63064 | 28102 ft | 434 kts | 249° |
| 2026-04-23 13:53 | 53.28272 | 8.58317 | 28549 ft | 437 kts | 249° |
| 2026-04-23 13:53 | 53.27218 | 8.53525 | 28941 ft | 441 kts | 249° |
| 2026-04-23 13:53 | 53.26165 | 8.48698 | 29359 ft | 444 kts | 250° |
| 2026-04-23 13:54 | 53.25171 | 8.43801 | 29822 ft | 446 kts | 251° |
| 2026-04-23 13:54 | 53.24239 | 8.38837 | 30216 ft | 450 kts | 252° |
| 2026-04-23 13:54 | 53.23333 | 8.33826 | 30350 ft | 447 kts | 253° |
| 2026-04-23 13:54 | 53.22456 | 8.28949 | 30363 ft | 429 kts | 252° |
| 2026-04-23 13:55 | 53.21603 | 8.24270 | 30361 ft | 415 kts | 252° |
| 2026-04-23 13:55 | 53.19896 | 8.15214 | 30375 ft | 408 kts | 251° |
| 2026-04-23 13:56 | 53.18175 | 8.06235 | 30372 ft | 407 kts | 251° |
| 2026-04-23 13:56 | 53.16474 | 7.97234 | 30390 ft | 406 kts | 252° |
| 2026-04-23 13:57 | 53.14785 | 7.88258 | 30388 ft | 407 kts | 251° |
| 2026-04-23 13:57 | 53.13310 | 7.80518 | 30391 ft | 407 kts | 251° |